sensor_id;sensor_type;location;lat;lon;timestamp;pressure;altitude;pressure_sealevel;temperature;humidity
68489;BME280;55481;48.764;8.936;2023-03-03T00:06:14;97180;;;0.5;66
68489;BME280;55481;48.764;8.936;2023-03-03T00:08:44;97180;;;0.4;66.5
68489;BME280;55481;48.764;8.936;2023-03-03T00:11:16;97180;;;0.5;66.5
68489;BME280;55481;48.764;8.936;2023-03-03T00:13:48;97180;;;0.5;66.5
68489;BME280;55481;48.764;8.936;2023-03-03T00:16:48;97190;;;0.3;66.5
68489;BME280;55481;48.764;8.936;2023-03-03T00:18:49;97180;;;0.3;66.5
68489;BME280;55481;48.764;8.936;2023-03-03T00:21:24;97180;;;0.3;66.5
68489;BME280;55481;48.764;8.936;2023-03-03T00:26:16;97190;;;0.2;67
68489;BME280;55481;48.764;8.936;2023-03-03T00:28:46;97190;;;0.1;67
68489;BME280;55481;48.764;8.936;2023-03-03T00:31:17;97190;;;0.1;67
68489;BME280;55481;48.764;8.936;2023-03-03T00:33:50;97190;;;0;67
68489;BME280;55481;48.764;8.936;2023-03-03T00:36:29;97190;;;-0.1;67.5
68489;BME280;55481;48.764;8.936;2023-03-03T00:38:48;97190;;;-0.1;67.5
68489;BME280;55481;48.764;8.936;2023-03-03T00:41:21;97190;;;-0.2;67.5
68489;BME280;55481;48.764;8.936;2023-03-03T00:43:56;97190;;;0;67
68489;BME280;55481;48.764;8.936;2023-03-03T00:49:04;97190;;;-0.2;67.5
68489;BME280;55481;48.764;8.936;2023-03-03T00:51:30;97190;;;-0.3;68
68489;BME280;55481;48.764;8.936;2023-03-03T00:56:36;97180;;;-0.2;67.5
68489;BME280;55481;48.764;8.936;2023-03-03T00:59:01;97190;;;-0.2;67.5
68489;BME280;55481;48.764;8.936;2023-03-03T01:01:31;97190;;;-0.4;67.5
68489;BME280;55481;48.764;8.936;2023-03-03T01:03:55;97190;;;-0.4;67.5
68489;BME280;55481;48.764;8.936;2023-03-03T01:08:57;97180;;;-0.4;67.5
68489;BME280;55481;48.764;8.936;2023-03-03T01:11:27;97180;;;-0.4;67.5
68489;BME280;55481;48.764;8.936;2023-03-03T01:13:59;97180;;;-0.5;68
68489;BME280;55481;48.764;8.936;2023-03-03T01:16:29;97180;;;-0.6;68
68489;BME280;55481;48.764;8.936;2023-03-03T01:19:00;97180;;;-0.7;68
68489;BME280;55481;48.764;8.936;2023-03-03T01:21:37;97180;;;-0.6;68
68489;BME280;55481;48.764;8.936;2023-03-03T01:24:08;97180;;;-0.5;67.5
68489;BME280;55481;48.764;8.936;2023-03-03T01:26:39;97180;;;-0.5;67.5
68489;BME280;55481;48.764;8.936;2023-03-03T01:29:10;97180;;;-0.6;67.5
68489;BME280;55481;48.764;8.936;2023-03-03T01:31:47;97180;;;-0.6;67.5
68489;BME280;55481;48.764;8.936;2023-03-03T01:34:18;97180;;;-0.7;68
68489;BME280;55481;48.764;8.936;2023-03-03T01:36:54;97180;;;-0.7;68
68489;BME280;55481;48.764;8.936;2023-03-03T01:39:11;97180;;;-0.8;68
68489;BME280;55481;48.764;8.936;2023-03-03T01:41:43;97190;;;-0.7;68
68489;BME280;55481;48.764;8.936;2023-03-03T01:44:14;97190;;;-0.8;68
68489;BME280;55481;48.764;8.936;2023-03-03T01:46:46;97190;;;-0.9;68.5
68489;BME280;55481;48.764;8.936;2023-03-03T01:51:43;97190;;;-1;68.5
68489;BME280;55481;48.764;8.936;2023-03-03T01:54:13;97190;;;-1;68.5
68489;BME280;55481;48.764;8.936;2023-03-03T02:01:43;97180;;;-1.1;68.5
68489;BME280;55481;48.764;8.936;2023-03-03T02:04:14;97180;;;-1.2;68.5
68489;BME280;55481;48.764;8.936;2023-03-03T02:06:46;97170;;;-1.2;68.5
68489;BME280;55481;48.764;8.936;2023-03-03T02:09:18;97170;;;-1.2;68.5
68489;BME280;55481;48.764;8.936;2023-03-03T02:11:47;97170;;;-1.3;68.5
68489;BME280;55481;48.764;8.936;2023-03-03T02:14:23;97170;;;-1.4;69
68489;BME280;55481;48.764;8.936;2023-03-03T02:16:55;97170;;;-1.3;68.5
68489;BME280;55481;48.764;8.936;2023-03-03T02:19:35;97160;;;-1.3;68.5
68489;BME280;55481;48.764;8.936;2023-03-03T02:21:57;97160;;;-1.2;68.5
68489;BME280;55481;48.764;8.936;2023-03-03T02:29:22;97150;;;-1.2;68.5
68489;BME280;55481;48.764;8.936;2023-03-03T02:31:53;97160;;;-1.1;68
68489;BME280;55481;48.764;8.936;2023-03-03T02:34:24;97160;;;-1.2;68
68489;BME280;55481;48.764;8.936;2023-03-03T02:36:55;97160;;;-1.3;68.5
68489;BME280;55481;48.764;8.936;2023-03-03T02:39:26;97160;;;-1.2;68
68489;BME280;55481;48.764;8.936;2023-03-03T02:42:01;97160;;;-1.2;68
68489;BME280;55481;48.764;8.936;2023-03-03T02:47:04;97160;;;-1.6;69
68489;BME280;55481;48.764;8.936;2023-03-03T02:49:35;97160;;;-1.5;68.5
68489;BME280;55481;48.764;8.936;2023-03-03T02:52:06;97160;;;-1.5;68.5
68489;BME280;55481;48.764;8.936;2023-03-03T02:54:37;97170;;;-1.6;69
68489;BME280;55481;48.764;8.936;2023-03-03T02:59:51;97180;;;-1.8;69.5
68489;BME280;55481;48.764;8.936;2023-03-03T03:04:44;97170;;;-1.8;69
68489;BME280;55481;48.764;8.936;2023-03-03T03:07:15;97170;;;-1.7;69
68489;BME280;55481;48.764;8.936;2023-03-03T03:12:08;97170;;;-1.6;68.5
68489;BME280;55481;48.764;8.936;2023-03-03T03:14:40;97180;;;-1.4;68.5
68489;BME280;55481;48.764;8.936;2023-03-03T03:17:10;97180;;;-1.3;68
68489;BME280;55481;48.764;8.936;2023-03-03T03:24:36;97180;;;-1.2;68.5
68489;BME280;55481;48.764;8.936;2023-03-03T03:27:07;97170;;;-1.1;68
68489;BME280;55481;48.764;8.936;2023-03-03T03:29:38;97170;;;-0.9;67.5
68489;BME280;55481;48.764;8.936;2023-03-03T03:32:09;97180;;;-1;68
68489;BME280;55481;48.764;8.936;2023-03-03T03:34:40;97180;;;-1;68
68489;BME280;55481;48.764;8.936;2023-03-03T03:37:10;97180;;;-1;68
68489;BME280;55481;48.764;8.936;2023-03-03T03:39:41;97180;;;-1;68
68489;BME280;55481;48.764;8.936;2023-03-03T03:42:12;97180;;;-1;68
68489;BME280;55481;48.764;8.936;2023-03-03T03:44:42;97180;;;-1;68.5
68489;BME280;55481;48.764;8.936;2023-03-03T03:52:15;97180;;;-0.9;68.5
68489;BME280;55481;48.764;8.936;2023-03-03T03:54:46;97180;;;-0.6;67.5
68489;BME280;55481;48.764;8.936;2023-03-03T03:57:23;97180;;;-0.6;67.5
68489;BME280;55481;48.764;8.936;2023-03-03T03:59:54;97170;;;-0.6;68
68489;BME280;55481;48.764;8.936;2023-03-03T04:02:25;97170;;;-0.8;68
68489;BME280;55481;48.764;8.936;2023-03-03T04:04:55;97170;;;-0.9;68.5
68489;BME280;55481;48.764;8.936;2023-03-03T04:09:51;97180;;;-1.1;69
68489;BME280;55481;48.764;8.936;2023-03-03T04:12:22;97170;;;-1.1;69
68489;BME280;55481;48.764;8.936;2023-03-03T04:14:52;97170;;;-0.8;68.5
68489;BME280;55481;48.764;8.936;2023-03-03T04:22:25;97170;;;-0.7;68
68489;BME280;55481;48.764;8.936;2023-03-03T04:24:56;97170;;;-0.5;68
68489;BME280;55481;48.764;8.936;2023-03-03T04:27:26;97170;;;-0.4;67.5
68489;BME280;55481;48.764;8.936;2023-03-03T04:30:11;97180;;;-0.3;67.5
68489;BME280;55481;48.764;8.936;2023-03-03T04:32:40;97180;;;-0.3;68
68489;BME280;55481;48.764;8.936;2023-03-03T04:35:11;97180;;;-0.3;68
68489;BME280;55481;48.764;8.936;2023-03-03T04:37:41;97180;;;-0.3;68
68489;BME280;55481;48.764;8.936;2023-03-03T04:40:11;97180;;;-0.3;68
68489;BME280;55481;48.764;8.936;2023-03-03T04:42:35;97180;;;-0.4;68
68489;BME280;55481;48.764;8.936;2023-03-03T04:45:06;97180;;;-0.5;68.5
68489;BME280;55481;48.764;8.936;2023-03-03T04:47:43;97180;;;-0.4;68.5
68489;BME280;55481;48.764;8.936;2023-03-03T04:50:15;97180;;;-0.3;68
68489;BME280;55481;48.764;8.936;2023-03-03T04:55:29;97180;;;-0.1;67.5
68489;BME280;55481;48.764;8.936;2023-03-03T04:57:46;97190;;;-0.1;68
68489;BME280;55481;48.764;8.936;2023-03-03T05:00:16;97190;;;-0.2;68
68489;BME280;55481;48.764;8.936;2023-03-03T05:02:47;97190;;;-0.1;68
68489;BME280;55481;48.764;8.936;2023-03-03T05:07:41;97200;;;-0.2;68
68489;BME280;55481;48.764;8.936;2023-03-03T05:10:12;97200;;;-0.1;68
68489;BME280;55481;48.764;8.936;2023-03-03T05:12:43;97200;;;0;68
68489;BME280;55481;48.764;8.936;2023-03-03T05:15:21;97200;;;0;68
68489;BME280;55481;48.764;8.936;2023-03-03T05:20:29;97210;;;-0.1;68.5
68489;BME280;55481;48.764;8.936;2023-03-03T05:23:06;97210;;;-0.1;68.5
68489;BME280;55481;48.764;8.936;2023-03-03T05:25:23;97200;;;-0.1;68.5
68489;BME280;55481;48.764;8.936;2023-03-03T05:27:53;97200;;;-0.1;68.5
68489;BME280;55481;48.764;8.936;2023-03-03T05:30:17;97200;;;-0.1;68.5
68489;BME280;55481;48.764;8.936;2023-03-03T05:32:48;97200;;;0;68
68489;BME280;55481;48.764;8.936;2023-03-03T05:35:20;97200;;;0;68.5
68489;BME280;55481;48.764;8.936;2023-03-03T05:37:44;97210;;;0;68
68489;BME280;55481;48.764;8.936;2023-03-03T05:45:17;97210;;;0;68.5
68489;BME280;55481;48.764;8.936;2023-03-03T05:47:47;97210;;;0;68
68489;BME280;55481;48.764;8.936;2023-03-03T05:50:18;97220;;;0.1;68
68489;BME280;55481;48.764;8.936;2023-03-03T05:52:49;97220;;;0.3;67.5
68489;BME280;55481;48.764;8.936;2023-03-03T05:55:26;97230;;;0.3;67.5
68489;BME280;55481;48.764;8.936;2023-03-03T05:57:57;97230;;;0.3;67.5
68489;BME280;55481;48.764;8.936;2023-03-03T06:00:28;97230;;;0.2;68
68489;BME280;55481;48.764;8.936;2023-03-03T06:03:06;97230;;;0;68.5
68489;BME280;55481;48.764;8.936;2023-03-03T06:07:54;97230;;;0.1;68.5
68489;BME280;55481;48.764;8.936;2023-03-03T06:15:26;97240;;;0.1;68.5
68489;BME280;55481;48.764;8.936;2023-03-03T06:17:57;97230;;;0.2;68
68489;BME280;55481;48.764;8.936;2023-03-03T06:20:28;97230;;;0.4;67.5
68489;BME280;55481;48.764;8.936;2023-03-03T06:22:58;97240;;;0.4;67.5
68489;BME280;55481;48.764;8.936;2023-03-03T06:25:30;97250;;;0;68.5
68489;BME280;55481;48.764;8.936;2023-03-03T06:30:37;97240;;;0.3;68
68489;BME280;55481;48.764;8.936;2023-03-03T06:33:08;97250;;;0.2;68
68489;BME280;55481;48.764;8.936;2023-03-03T06:35:39;97250;;;0.2;68
68489;BME280;55481;48.764;8.936;2023-03-03T06:43:04;97260;;;0.3;68
68489;BME280;55481;48.764;8.936;2023-03-03T06:45:35;97260;;;0.5;67.5
68489;BME280;55481;48.764;8.936;2023-03-03T06:48:06;97260;;;0.6;67.5
68489;BME280;55481;48.764;8.936;2023-03-03T06:50:36;97260;;;0.7;67.5
68489;BME280;55481;48.764;8.936;2023-03-03T06:58:24;97270;;;0.4;68
68489;BME280;55481;48.764;8.936;2023-03-03T07:00:56;97280;;;0.3;68.5
68489;BME280;55481;48.764;8.936;2023-03-03T07:03:25;97280;;;0.3;68.5
68489;BME280;55481;48.764;8.936;2023-03-03T07:10:44;97280;;;0.5;68
68489;BME280;55481;48.764;8.936;2023-03-03T07:13:18;97280;;;0.8;67.5
68489;BME280;55481;48.764;8.936;2023-03-03T07:15:45;97280;;;1;67
68489;BME280;55481;48.764;8.936;2023-03-03T07:18:21;97280;;;1.1;67
68489;BME280;55481;48.764;8.936;2023-03-03T07:20:46;97290;;;1.2;66.5
68489;BME280;55481;48.764;8.936;2023-03-03T07:23:20;97290;;;1.3;66.5
68489;BME280;55481;48.764;8.936;2023-03-03T07:28:30;97300;;;1.5;66.5
68489;BME280;55481;48.764;8.936;2023-03-03T07:30:59;97300;;;1.5;66.5
68489;BME280;55481;48.764;8.936;2023-03-03T07:41:00;97290;;;1.5;67
68489;BME280;55481;48.764;8.936;2023-03-03T07:43:34;97290;;;1.6;67
68489;BME280;55481;48.764;8.936;2023-03-03T07:48:24;97290;;;2.1;66
68489;BME280;55481;48.764;8.936;2023-03-03T07:50:50;97290;;;2.2;66
68489;BME280;55481;48.764;8.936;2023-03-03T07:58:23;97290;;;2.1;66.5
68489;BME280;55481;48.764;8.936;2023-03-03T08:03:23;97300;;;2.3;66
68489;BME280;55481;48.764;8.936;2023-03-03T08:08:28;97300;;;2.3;66.5
68489;BME280;55481;48.764;8.936;2023-03-03T08:10:55;97300;;;2.6;66
68489;BME280;55481;48.764;8.936;2023-03-03T08:13:28;97300;;;2.8;65.5
68489;BME280;55481;48.764;8.936;2023-03-03T08:15:58;97300;;;2.6;66
68489;BME280;55481;48.764;8.936;2023-03-03T08:25:57;97310;;;2.8;66
68489;BME280;55481;48.764;8.936;2023-03-03T08:28:28;97310;;;2.9;66
68489;BME280;55481;48.764;8.936;2023-03-03T08:31:02;97300;;;3;66
68489;BME280;55481;48.764;8.936;2023-03-03T08:36:22;97300;;;2.9;66.5
68489;BME280;55481;48.764;8.936;2023-03-03T08:38:52;97300;;;3.1;66.5
68489;BME280;55481;48.764;8.936;2023-03-03T08:43:42;97290;;;3.5;65.5
68489;BME280;55481;48.764;8.936;2023-03-03T08:46:13;97300;;;3.2;66
68489;BME280;55481;48.764;8.936;2023-03-03T08:48:42;97300;;;3.1;66.5
68489;BME280;55481;48.764;8.936;2023-03-03T08:51:22;97290;;;3.5;66
68489;BME280;55481;48.764;8.936;2023-03-03T08:53:52;97290;;;3.4;66
68489;BME280;55481;48.764;8.936;2023-03-03T08:58:32;97300;;;3.2;66.5
68489;BME280;55481;48.764;8.936;2023-03-03T09:06:15;97310;;;3.5;66.5
68489;BME280;55481;48.764;8.936;2023-03-03T09:08:45;97310;;;3.6;66
68489;BME280;55481;48.764;8.936;2023-03-03T09:11:18;97310;;;4;65.5
68489;BME280;55481;48.764;8.936;2023-03-03T09:18:35;97310;;;5.3;63.5
68489;BME280;55481;48.764;8.936;2023-03-03T09:21:36;97310;;;5.9;62.5
68489;BME280;55481;48.764;8.936;2023-03-03T09:23:37;97320;;;5.9;62.5
68489;BME280;55481;48.764;8.936;2023-03-03T09:26:17;97320;;;5.6;63.5
68489;BME280;55481;48.764;8.936;2023-03-03T09:33:49;97320;;;6;63.5
68489;BME280;55481;48.764;8.936;2023-03-03T09:36:22;97320;;;5.9;63.5
68489;BME280;55481;48.764;8.936;2023-03-03T09:46:51;97330;;;6.2;63.5
68489;BME280;55481;48.764;8.936;2023-03-03T09:49:05;97330;;;6.5;63
68489;BME280;55481;48.764;8.936;2023-03-03T09:58:56;97330;;;6.5;63.5
68489;BME280;55481;48.764;8.936;2023-03-03T10:01:17;97330;;;6.6;63
68489;BME280;55481;48.764;8.936;2023-03-03T10:03:48;97330;;;6.4;63.5
68489;BME280;55481;48.764;8.936;2023-03-03T10:11:17;97320;;;6.9;62.5
68489;BME280;55481;48.764;8.936;2023-03-03T10:13:54;97320;;;7.3;62
68489;BME280;55481;48.764;8.936;2023-03-03T10:18:49;97330;;;6.8;63
68489;BME280;55481;48.764;8.936;2023-03-03T10:24:02;97320;;;7.5;62
68489;BME280;55481;48.764;8.936;2023-03-03T10:27:01;97320;;;7.6;61.5
68489;BME280;55481;48.764;8.936;2023-03-03T10:29:01;97330;;;7.6;61.5
68489;BME280;55481;48.764;8.936;2023-03-03T10:31:33;97320;;;7.9;61.5
68489;BME280;55481;48.764;8.936;2023-03-03T10:34:32;97320;;;8.3;60.5
68489;BME280;55481;48.764;8.936;2023-03-03T10:36:45;97330;;;8;61.5
68489;BME280;55481;48.764;8.936;2023-03-03T10:41:42;97320;;;7.4;62.5
68489;BME280;55481;48.764;8.936;2023-03-03T10:44:02;97320;;;8.2;61.5
68489;BME280;55481;48.764;8.936;2023-03-03T10:46:31;97320;;;8.8;60.5
68489;BME280;55481;48.764;8.936;2023-03-03T10:56:23;97310;;;8.7;61
68489;BME280;55481;48.764;8.936;2023-03-03T11:04:24;97320;;;8.7;61.5
68489;BME280;55481;48.764;8.936;2023-03-03T11:06:24;97310;;;9;61
68489;BME280;55481;48.764;8.936;2023-03-03T11:08:52;97310;;;8.4;62
68489;BME280;55481;48.764;8.936;2023-03-03T11:11:47;97310;;;8.1;63
68489;BME280;55481;48.764;8.936;2023-03-03T11:14:32;97310;;;8.6;62
68489;BME280;55481;48.764;8.936;2023-03-03T11:16:51;97310;;;9.1;61
68489;BME280;55481;48.764;8.936;2023-03-03T11:19:11;97310;;;9.2;61
68489;BME280;55481;48.764;8.936;2023-03-03T11:21:45;97310;;;9.5;60.5
68489;BME280;55481;48.764;8.936;2023-03-03T11:26:49;97310;;;9.2;61
68489;BME280;55481;48.764;8.936;2023-03-03T11:29:25;97310;;;9.7;60
68489;BME280;55481;48.764;8.936;2023-03-03T11:34:12;97320;;;9.1;61
68489;BME280;55481;48.764;8.936;2023-03-03T11:36:38;97310;;;9.3;61
68489;BME280;55481;48.764;8.936;2023-03-03T11:39:08;97310;;;9.3;60.5
68489;BME280;55481;48.764;8.936;2023-03-03T11:47:09;97320;;;8.9;62
68489;BME280;55481;48.764;8.936;2023-03-03T11:49:23;97320;;;8.3;63
68489;BME280;55481;48.764;8.936;2023-03-03T11:51:53;97310;;;8.5;62.5
68489;BME280;55481;48.764;8.936;2023-03-03T11:54:37;97310;;;8.5;62
68489;BME280;55481;48.764;8.936;2023-03-03T12:01:51;97300;;;9.2;60.5
68489;BME280;55481;48.764;8.936;2023-03-03T12:04:12;97290;;;9.1;61
68489;BME280;55481;48.764;8.936;2023-03-03T12:09:22;97290;;;9;61
68489;BME280;55481;48.764;8.936;2023-03-03T12:16:57;97280;;;9.6;60
68489;BME280;55481;48.764;8.936;2023-03-03T12:19:27;97280;;;9.7;60
68489;BME280;55481;48.764;8.936;2023-03-03T12:21:58;97270;;;9.9;59.5
68489;BME280;55481;48.764;8.936;2023-03-03T12:24:44;97280;;;10.2;59
68489;BME280;55481;48.764;8.936;2023-03-03T12:27:00;97280;;;10;59.5
68489;BME280;55481;48.764;8.936;2023-03-03T12:29:25;97270;;;10;60
68489;BME280;55481;48.764;8.936;2023-03-03T12:31:48;97280;;;10.1;59.5
68489;BME280;55481;48.764;8.936;2023-03-03T12:39:15;97260;;;12;56
68489;BME280;55481;48.764;8.936;2023-03-03T12:41:43;97260;;;11.5;57
68489;BME280;55481;48.764;8.936;2023-03-03T12:44:14;97260;;;11.9;56.5
68489;BME280;55481;48.764;8.936;2023-03-03T12:54:11;97260;;;11.2;57.5
68489;BME280;55481;48.764;8.936;2023-03-03T12:56:38;97270;;;10.8;58.5
68489;BME280;55481;48.764;8.936;2023-03-03T12:59:28;97260;;;11.9;57
68489;BME280;55481;48.764;8.936;2023-03-03T13:01:47;97250;;;14.6;51
68489;BME280;55481;48.764;8.936;2023-03-03T13:06:54;97240;;;16.1;49
68489;BME280;55481;48.764;8.936;2023-03-03T13:09:24;97240;;;17;48
68489;BME280;55481;48.764;8.936;2023-03-03T13:11:54;97240;;;17.2;47.5
68489;BME280;55481;48.764;8.936;2023-03-03T13:17:14;97240;;;16.5;50
68489;BME280;55481;48.764;8.936;2023-03-03T13:21:49;97240;;;17;49
68489;BME280;55481;48.764;8.936;2023-03-03T13:29:14;97240;;;15.9;51
68489;BME280;55481;48.764;8.936;2023-03-03T13:31:50;97250;;;14.1;54.5
68489;BME280;55481;48.764;8.936;2023-03-03T13:34:15;97250;;;13.5;56
68489;BME280;55481;48.764;8.936;2023-03-03T13:44:17;97230;;;15.6;51.5
68489;BME280;55481;48.764;8.936;2023-03-03T13:46:49;97230;;;14.7;53
68489;BME280;55481;48.764;8.936;2023-03-03T13:52:03;97220;;;15.6;51.5
68489;BME280;55481;48.764;8.936;2023-03-03T13:57:34;97240;;;14.6;52.5
68489;BME280;55481;48.764;8.936;2023-03-03T13:59:31;97240;;;14.2;53
68489;BME280;55481;48.764;8.936;2023-03-03T14:02:01;97230;;;15;51.5
68489;BME280;55481;48.764;8.936;2023-03-03T14:14:43;97210;;;15.3;52
68489;BME280;55481;48.764;8.936;2023-03-03T14:17:37;97220;;;15.2;51
68489;BME280;55481;48.764;8.936;2023-03-03T14:19:34;97210;;;15;51.5
68489;BME280;55481;48.764;8.936;2023-03-03T14:22:17;97210;;;15.5;50.5
68489;BME280;55481;48.764;8.936;2023-03-03T14:27:01;97210;;;15.4;51.5
68489;BME280;55481;48.764;8.936;2023-03-03T14:29:32;97210;;;16.1;50.5
68489;BME280;55481;48.764;8.936;2023-03-03T14:32:02;97210;;;15.7;49.5
68489;BME280;55481;48.764;8.936;2023-03-03T14:36:50;97210;;;15.5;50
68489;BME280;55481;48.764;8.936;2023-03-03T14:39:31;97210;;;15.8;49.5
68489;BME280;55481;48.764;8.936;2023-03-03T14:43:18;97210;;;15.7;50
68489;BME280;55481;48.764;8.936;2023-03-03T14:44:25;97220;;;15.7;49.5
68489;BME280;55481;48.764;8.936;2023-03-03T14:47:02;97220;;;15.8;49
68489;BME280;55481;48.764;8.936;2023-03-03T14:49:28;97220;;;15.6;49
68489;BME280;55481;48.764;8.936;2023-03-03T14:51:53;97210;;;16.2;48
68489;BME280;55481;48.764;8.936;2023-03-03T14:54:25;97210;;;16.7;47
68489;BME280;55481;48.764;8.936;2023-03-03T14:59:25;97210;;;15.4;49
68489;BME280;55481;48.764;8.936;2023-03-03T15:01:57;97210;;;15.5;48.5
68489;BME280;55481;48.764;8.936;2023-03-03T15:04:27;97210;;;16;48
68489;BME280;55481;48.764;8.936;2023-03-03T15:09:39;97210;;;15.8;48
68489;BME280;55481;48.764;8.936;2023-03-03T15:12:20;97210;;;15.6;48
68489;BME280;55481;48.764;8.936;2023-03-03T15:17:25;97200;;;15;48.5
68489;BME280;55481;48.764;8.936;2023-03-03T15:22:12;97200;;;15.5;48
68489;BME280;55481;48.764;8.936;2023-03-03T15:24:44;97200;;;14.8;48.5
68489;BME280;55481;48.764;8.936;2023-03-03T15:27:11;97200;;;15;48.5
68489;BME280;55481;48.764;8.936;2023-03-03T15:29:53;97200;;;15.1;48
68489;BME280;55481;48.764;8.936;2023-03-03T15:32:18;97190;;;14.7;48
68489;BME280;55481;48.764;8.936;2023-03-03T15:42:32;97200;;;15;47.5
68489;BME280;55481;48.764;8.936;2023-03-03T15:44:37;97200;;;14.6;48
68489;BME280;55481;48.764;8.936;2023-03-03T15:47:07;97210;;;14.1;49
